sensor_id;sensor_type;location;lat;lon;timestamp;P1;durP1;ratioP1;P2;durP2;ratioP2
6665;SDS011;3369;49.906;8.598;2023-02-28T00:01:13;2.47;;;2.27;;
6665;SDS011;3369;49.906;8.598;2023-02-28T00:03:40;2.37;;;2.17;;
6665;SDS011;3369;49.906;8.598;2023-02-28T00:06:06;2.57;;;2.37;;
6665;SDS011;3369;49.906;8.598;2023-02-28T00:08:34;2.03;;;1.93;;
6665;SDS011;3369;49.906;8.598;2023-02-28T00:11:03;1.87;;;1.77;;
6665;SDS011;3369;49.906;8.598;2023-02-28T00:13:30;2.70;;;2.03;;
6665;SDS011;3369;49.906;8.598;2023-02-28T00:16:00;2.20;;;2.00;;
6665;SDS011;3369;49.906;8.598;2023-02-28T00:18:31;3.27;;;1.67;;
6665;SDS011;3369;49.906;8.598;2023-02-28T00:21:06;2.03;;;1.93;;
6665;SDS011;3369;49.906;8.598;2023-02-28T00:23:48;2.53;;;2.17;;
6665;SDS011;3369;49.906;8.598;2023-02-28T00:29:52;2.77;;;1.90;;
6665;SDS011;3369;49.906;8.598;2023-02-28T00:32:19;2.33;;;2.10;;
6665;SDS011;3369;49.906;8.598;2023-02-28T00:34:54;1.80;;;1.70;;
6665;SDS011;3369;49.906;8.598;2023-02-28T00:37:20;2.10;;;1.90;;
6665;SDS011;3369;49.906;8.598;2023-02-28T00:39:52;2.67;;;1.90;;
6665;SDS011;3369;49.906;8.598;2023-02-28T00:42:44;2.13;;;1.70;;
6665;SDS011;3369;49.906;8.598;2023-02-28T00:45:17;2.53;;;2.20;;
6665;SDS011;3369;49.906;8.598;2023-02-28T00:47:47;2.27;;;2.07;;
6665;SDS011;3369;49.906;8.598;2023-02-28T00:50:18;2.20;;;2.00;;
6665;SDS011;3369;49.906;8.598;2023-02-28T00:53:15;2.87;;;2.03;;
6665;SDS011;3369;49.906;8.598;2023-02-28T00:59:13;2.00;;;1.80;;
6665;SDS011;3369;49.906;8.598;2023-02-28T01:01:43;1.97;;;1.87;;
6665;SDS011;3369;49.906;8.598;2023-02-28T01:04:20;2.53;;;2.10;;
6665;SDS011;3369;49.906;8.598;2023-02-28T01:07:10;2.43;;;1.80;;
6665;SDS011;3369;49.906;8.598;2023-02-28T01:32:16;1.70;;;1.60;;
6665;SDS011;3369;49.906;8.598;2023-02-28T01:34:42;2.40;;;2.10;;
6665;SDS011;3369;49.906;8.598;2023-02-28T01:37:08;2.07;;;1.93;;
6665;SDS011;3369;49.906;8.598;2023-02-28T01:39:39;1.83;;;1.73;;
6665;SDS011;3369;49.906;8.598;2023-02-28T01:45:24;2.13;;;1.93;;
6665;SDS011;3369;49.906;8.598;2023-02-28T01:48:34;3.10;;;2.03;;
6665;SDS011;3369;49.906;8.598;2023-02-28T01:51:10;2.40;;;2.20;;
6665;SDS011;3369;49.906;8.598;2023-02-28T01:53:49;2.27;;;2.17;;
6665;SDS011;3369;49.906;8.598;2023-02-28T01:56:20;2.30;;;2.10;;
6665;SDS011;3369;49.906;8.598;2023-02-28T01:58:54;2.50;;;2.30;;
6665;SDS011;3369;49.906;8.598;2023-02-28T02:01:21;2.43;;;2.23;;
6665;SDS011;3369;49.906;8.598;2023-02-28T02:03:49;2.20;;;2.10;;
6665;SDS011;3369;49.906;8.598;2023-02-28T02:06:21;2.83;;;2.57;;
6665;SDS011;3369;49.906;8.598;2023-02-28T02:09:44;2.40;;;2.20;;
6665;SDS011;3369;49.906;8.598;2023-02-28T02:19:04;2.70;;;2.50;;
6665;SDS011;3369;49.906;8.598;2023-02-28T02:30:59;3.30;;;2.50;;
6665;SDS011;3369;49.906;8.598;2023-02-28T02:34:32;3.93;;;2.70;;
6665;SDS011;3369;49.906;8.598;2023-02-28T02:47:06;2.70;;;2.50;;
6665;SDS011;3369;49.906;8.598;2023-02-28T02:49:49;2.90;;;2.70;;
6665;SDS011;3369;49.906;8.598;2023-02-28T02:55:36;5.20;;;3.03;;
6665;SDS011;3369;49.906;8.598;2023-02-28T02:58:19;2.90;;;2.70;;
6665;SDS011;3369;49.906;8.598;2023-02-28T03:00:53;3.33;;;2.97;;
6665;SDS011;3369;49.906;8.598;2023-02-28T03:03:23;3.37;;;3.07;;
6665;SDS011;3369;49.906;8.598;2023-02-28T03:05:55;2.73;;;2.53;;
6665;SDS011;3369;49.906;8.598;2023-02-28T03:08:22;3.13;;;2.83;;
6665;SDS011;3369;49.906;8.598;2023-02-28T03:10:52;3.90;;;3.07;;
6665;SDS011;3369;49.906;8.598;2023-02-28T03:13:34;2.80;;;2.60;;
6665;SDS011;3369;49.906;8.598;2023-02-28T03:17:03;2.70;;;2.50;;
6665;SDS011;3369;49.906;8.598;2023-02-28T03:29:50;3.67;;;3.10;;
6665;SDS011;3369;49.906;8.598;2023-02-28T03:32:43;3.27;;;2.97;;
6665;SDS011;3369;49.906;8.598;2023-02-28T03:35:49;3.73;;;3.30;;
6665;SDS011;3369;49.906;8.598;2023-02-28T03:39:04;3.27;;;3.00;;
6665;SDS011;3369;49.906;8.598;2023-02-28T03:42:01;3.70;;;3.00;;
6665;SDS011;3369;49.906;8.598;2023-02-28T03:47:51;4.83;;;2.93;;
6665;SDS011;3369;49.906;8.598;2023-02-28T03:50:37;3.30;;;3.00;;
6665;SDS011;3369;49.906;8.598;2023-02-28T03:53:20;3.30;;;3.10;;
6665;SDS011;3369;49.906;8.598;2023-02-28T03:56:01;3.37;;;2.90;;
6665;SDS011;3369;49.906;8.598;2023-02-28T04:01:41;2.77;;;2.57;;
6665;SDS011;3369;49.906;8.598;2023-02-28T04:04:23;2.70;;;2.50;;
6665;SDS011;3369;49.906;8.598;2023-02-28T04:06:52;3.20;;;2.80;;
6665;SDS011;3369;49.906;8.598;2023-02-28T04:09:29;3.20;;;2.90;;
6665;SDS011;3369;49.906;8.598;2023-02-28T04:14:56;3.30;;;3.00;;
6665;SDS011;3369;49.906;8.598;2023-02-28T04:17:22;3.10;;;2.90;;
6665;SDS011;3369;49.906;8.598;2023-02-28T04:19:53;3.40;;;2.93;;
6665;SDS011;3369;49.906;8.598;2023-02-28T04:22:21;2.97;;;2.73;;
6665;SDS011;3369;49.906;8.598;2023-02-28T04:24:58;3.30;;;3.00;;
6665;SDS011;3369;49.906;8.598;2023-02-28T04:28:04;3.30;;;3.00;;
6665;SDS011;3369;49.906;8.598;2023-02-28T04:30:30;2.93;;;2.73;;
6665;SDS011;3369;49.906;8.598;2023-02-28T04:32:58;2.73;;;2.53;;
6665;SDS011;3369;49.906;8.598;2023-02-28T04:35:24;2.90;;;2.70;;
6665;SDS011;3369;49.906;8.598;2023-02-28T04:37:52;2.80;;;2.60;;
6665;SDS011;3369;49.906;8.598;2023-02-28T04:40:21;3.57;;;3.27;;
6665;SDS011;3369;49.906;8.598;2023-02-28T04:42:46;3.00;;;2.80;;
6665;SDS011;3369;49.906;8.598;2023-02-28T04:45:12;4.17;;;3.53;;
6665;SDS011;3369;49.906;8.598;2023-02-28T04:47:44;3.10;;;2.90;;
6665;SDS011;3369;49.906;8.598;2023-02-28T04:50:12;3.57;;;3.27;;
6665;SDS011;3369;49.906;8.598;2023-02-28T04:52:37;5.93;;;3.90;;
6665;SDS011;3369;49.906;8.598;2023-02-28T04:55:51;3.80;;;3.50;;
6665;SDS011;3369;49.906;8.598;2023-02-28T04:57:59;5.40;;;3.40;;
6665;SDS011;3369;49.906;8.598;2023-02-28T05:10:41;3.87;;;3.40;;
6665;SDS011;3369;49.906;8.598;2023-02-28T05:13:09;4.00;;;3.60;;
6665;SDS011;3369;49.906;8.598;2023-02-28T05:15:50;3.80;;;3.50;;
6665;SDS011;3369;49.906;8.598;2023-02-28T05:18:16;3.80;;;3.43;;
6665;SDS011;3369;49.906;8.598;2023-02-28T05:21:02;3.83;;;3.53;;
6665;SDS011;3369;49.906;8.598;2023-02-28T05:23:29;6.13;;;4.30;;
6665;SDS011;3369;49.906;8.598;2023-02-28T05:25:55;4.60;;;4.03;;
6665;SDS011;3369;49.906;8.598;2023-02-28T05:28:23;5.07;;;3.67;;
6665;SDS011;3369;49.906;8.598;2023-02-28T05:30:49;4.10;;;3.70;;
6665;SDS011;3369;49.906;8.598;2023-02-28T05:33:15;4.50;;;3.40;;
6665;SDS011;3369;49.906;8.598;2023-02-28T05:35:41;3.83;;;3.20;;
6665;SDS011;3369;49.906;8.598;2023-02-28T05:38:10;4.07;;;3.67;;
6665;SDS011;3369;49.906;8.598;2023-02-28T05:40:37;3.30;;;3.00;;
6665;SDS011;3369;49.906;8.598;2023-02-28T05:43:42;4.20;;;3.30;;
6665;SDS011;3369;49.906;8.598;2023-02-28T05:46:09;3.30;;;3.00;;
6665;SDS011;3369;49.906;8.598;2023-02-28T05:48:37;3.30;;;3.10;;
6665;SDS011;3369;49.906;8.598;2023-02-28T05:51:05;3.03;;;2.83;;
6665;SDS011;3369;49.906;8.598;2023-02-28T05:53:39;4.27;;;3.50;;
6665;SDS011;3369;49.906;8.598;2023-02-28T05:56:07;3.70;;;3.40;;
6665;SDS011;3369;49.906;8.598;2023-02-28T05:58:33;3.87;;;2.80;;
6665;SDS011;3369;49.906;8.598;2023-02-28T06:01:21;3.07;;;2.87;;
6665;SDS011;3369;49.906;8.598;2023-02-28T06:03:45;3.30;;;3.10;;
6665;SDS011;3369;49.906;8.598;2023-02-28T06:06:11;3.00;;;2.80;;
6665;SDS011;3369;49.906;8.598;2023-02-28T06:08:37;3.43;;;3.13;;
6665;SDS011;3369;49.906;8.598;2023-02-28T06:11:03;4.03;;;3.10;;
6665;SDS011;3369;49.906;8.598;2023-02-28T06:13:31;3.13;;;2.83;;
6665;SDS011;3369;49.906;8.598;2023-02-28T06:16:00;2.73;;;2.53;;
6665;SDS011;3369;49.906;8.598;2023-02-28T06:18:26;2.80;;;2.60;;
6665;SDS011;3369;49.906;8.598;2023-02-28T06:20:55;2.93;;;2.70;;
6665;SDS011;3369;49.906;8.598;2023-02-28T06:23:21;2.80;;;2.50;;
6665;SDS011;3369;49.906;8.598;2023-02-28T06:25:47;3.80;;;3.50;;
6665;SDS011;3369;49.906;8.598;2023-02-28T06:28:14;3.33;;;3.03;;
6665;SDS011;3369;49.906;8.598;2023-02-28T06:30:43;3.40;;;3.10;;
6665;SDS011;3369;49.906;8.598;2023-02-28T06:37:11;2.63;;;2.43;;
6665;SDS011;3369;49.906;8.598;2023-02-28T06:39:49;3.00;;;2.70;;
6665;SDS011;3369;49.906;8.598;2023-02-28T06:42:27;3.50;;;3.03;;
6665;SDS011;3369;49.906;8.598;2023-02-28T06:45:02;4.50;;;2.93;;
6665;SDS011;3369;49.906;8.598;2023-02-28T06:47:34;3.93;;;2.80;;
6665;SDS011;3369;49.906;8.598;2023-02-28T06:50:01;3.47;;;2.63;;
6665;SDS011;3369;49.906;8.598;2023-02-28T07:12:47;2.83;;;2.63;;
6665;SDS011;3369;49.906;8.598;2023-02-28T07:15:14;3.93;;;2.80;;
6665;SDS011;3369;49.906;8.598;2023-02-28T07:31:38;3.80;;;3.07;;
6665;SDS011;3369;49.906;8.598;2023-02-28T07:33:55;4.00;;;3.60;;
6665;SDS011;3369;49.906;8.598;2023-02-28T08:07:36;4.00;;;3.60;;
6665;SDS011;3369;49.906;8.598;2023-02-28T08:10:02;3.10;;;2.80;;
6665;SDS011;3369;49.906;8.598;2023-02-28T08:12:30;4.50;;;3.20;;
6665;SDS011;3369;49.906;8.598;2023-02-28T08:14:56;3.37;;;2.67;;
6665;SDS011;3369;49.906;8.598;2023-02-28T08:17:21;2.67;;;2.47;;
6665;SDS011;3369;49.906;8.598;2023-02-28T08:19:47;5.27;;;2.63;;
6665;SDS011;3369;49.906;8.598;2023-02-28T08:22:12;3.03;;;2.40;;
6665;SDS011;3369;49.906;8.598;2023-02-28T08:24:38;3.03;;;2.57;;
6665;SDS011;3369;49.906;8.598;2023-02-28T08:27:06;3.20;;;2.87;;
6665;SDS011;3369;49.906;8.598;2023-02-28T08:29:32;3.60;;;2.90;;
6665;SDS011;3369;49.906;8.598;2023-02-28T08:31:57;5.13;;;3.23;;
6665;SDS011;3369;49.906;8.598;2023-02-28T08:34:23;3.07;;;2.77;;
6665;SDS011;3369;49.906;8.598;2023-02-28T08:36:49;3.23;;;2.73;;
6665;SDS011;3369;49.906;8.598;2023-02-28T08:39:15;3.73;;;3.20;;
6665;SDS011;3369;49.906;8.598;2023-02-28T08:41:41;3.77;;;2.87;;
6665;SDS011;3369;49.906;8.598;2023-02-28T08:44:08;2.53;;;2.33;;
6665;SDS011;3369;49.906;8.598;2023-02-28T08:46:34;3.03;;;2.40;;
6665;SDS011;3369;49.906;8.598;2023-02-28T08:49:00;4.07;;;3.10;;
6665;SDS011;3369;49.906;8.598;2023-02-28T08:51:27;2.90;;;2.53;;
6665;SDS011;3369;49.906;8.598;2023-02-28T08:53:54;3.33;;;3.03;;
6665;SDS011;3369;49.906;8.598;2023-02-28T08:56:21;3.50;;;3.20;;
6665;SDS011;3369;49.906;8.598;2023-02-28T08:58:48;4.73;;;3.07;;
6665;SDS011;3369;49.906;8.598;2023-02-28T09:01:16;3.27;;;2.80;;
6665;SDS011;3369;49.906;8.598;2023-02-28T09:03:43;2.97;;;2.67;;
6665;SDS011;3369;49.906;8.598;2023-02-28T09:06:11;3.30;;;2.80;;
6665;SDS011;3369;49.906;8.598;2023-02-28T09:08:37;2.97;;;2.77;;
6665;SDS011;3369;49.906;8.598;2023-02-28T09:11:04;4.87;;;3.10;;
6665;SDS011;3369;49.906;8.598;2023-02-28T09:13:30;3.90;;;3.10;;
6665;SDS011;3369;49.906;8.598;2023-02-28T09:15:57;3.90;;;3.10;;
6665;SDS011;3369;49.906;8.598;2023-02-28T09:18:24;3.00;;;2.67;;
6665;SDS011;3369;49.906;8.598;2023-02-28T09:20:51;2.60;;;2.40;;
6665;SDS011;3369;49.906;8.598;2023-02-28T09:23:17;3.50;;;3.20;;
6665;SDS011;3369;49.906;8.598;2023-02-28T09:25:47;6.97;;;3.00;;
6665;SDS011;3369;49.906;8.598;2023-02-28T09:28:14;4.07;;;3.30;;
6665;SDS011;3369;49.906;8.598;2023-02-28T09:30:42;3.20;;;2.90;;
6665;SDS011;3369;49.906;8.598;2023-02-28T09:33:12;4.27;;;3.40;;
6665;SDS011;3369;49.906;8.598;2023-02-28T09:35:39;3.50;;;3.20;;
6665;SDS011;3369;49.906;8.598;2023-02-28T09:38:05;3.50;;;3.20;;
6665;SDS011;3369;49.906;8.598;2023-02-28T09:40:34;3.60;;;3.00;;
6665;SDS011;3369;49.906;8.598;2023-02-28T09:43:09;3.87;;;3.50;;
6665;SDS011;3369;49.906;8.598;2023-02-28T09:45:42;4.90;;;4.03;;
6665;SDS011;3369;49.906;8.598;2023-02-28T09:48:32;5.70;;;3.60;;
6665;SDS011;3369;49.906;8.598;2023-02-28T09:51:52;5.17;;;3.57;;
6665;SDS011;3369;49.906;8.598;2023-02-28T09:53:58;4.97;;;3.70;;
6665;SDS011;3369;49.906;8.598;2023-02-28T09:56:25;6.17;;;3.63;;
6665;SDS011;3369;49.906;8.598;2023-02-28T09:59:13;5.77;;;4.30;;
6665;SDS011;3369;49.906;8.598;2023-02-28T10:10:02;5.47;;;4.00;;
6665;SDS011;3369;49.906;8.598;2023-02-28T10:12:41;6.50;;;4.27;;
6665;SDS011;3369;49.906;8.598;2023-02-28T10:15:13;6.73;;;3.97;;
6665;SDS011;3369;49.906;8.598;2023-02-28T10:17:41;4.80;;;3.80;;
6665;SDS011;3369;49.906;8.598;2023-02-28T10:20:14;6.07;;;3.93;;
6665;SDS011;3369;49.906;8.598;2023-02-28T10:25:26;4.97;;;3.40;;
6665;SDS011;3369;49.906;8.598;2023-02-28T10:28:28;4.13;;;3.73;;
6665;SDS011;3369;49.906;8.598;2023-02-28T10:30:47;5.97;;;3.70;;
6665;SDS011;3369;49.906;8.598;2023-02-28T10:33:25;5.63;;;3.83;;
6665;SDS011;3369;49.906;8.598;2023-02-28T10:35:55;6.10;;;3.87;;
6665;SDS011;3369;49.906;8.598;2023-02-28T10:38:24;4.57;;;3.63;;
6665;SDS011;3369;49.906;8.598;2023-02-28T10:41:02;4.17;;;3.77;;
6665;SDS011;3369;49.906;8.598;2023-02-28T10:43:31;5.13;;;3.70;;
6665;SDS011;3369;49.906;8.598;2023-02-28T10:46:11;4.03;;;3.63;;
6665;SDS011;3369;49.906;8.598;2023-02-28T10:51:39;4.30;;;3.80;;
6665;SDS011;3369;49.906;8.598;2023-02-28T10:54:06;4.07;;;3.67;;
6665;SDS011;3369;49.906;8.598;2023-02-28T10:56:40;6.83;;;4.13;;
6665;SDS011;3369;49.906;8.598;2023-02-28T10:59:26;4.23;;;3.57;;
6665;SDS011;3369;49.906;8.598;2023-02-28T11:01:54;4.30;;;3.87;;
6665;SDS011;3369;49.906;8.598;2023-02-28T11:09:51;3.97;;;3.57;;
6665;SDS011;3369;49.906;8.598;2023-02-28T11:17:53;3.60;;;3.30;;
6665;SDS011;3369;49.906;8.598;2023-02-28T11:20:29;3.77;;;3.40;;
6665;SDS011;3369;49.906;8.598;2023-02-28T11:22:57;3.97;;;3.67;;
6665;SDS011;3369;49.906;8.598;2023-02-28T11:25:29;5.10;;;3.90;;
6665;SDS011;3369;49.906;8.598;2023-02-28T11:27:57;4.37;;;3.70;;
6665;SDS011;3369;49.906;8.598;2023-02-28T11:30:35;3.90;;;3.50;;
6665;SDS011;3369;49.906;8.598;2023-02-28T11:35:48;4.47;;;3.77;;
6665;SDS011;3369;49.906;8.598;2023-02-28T11:38:16;5.13;;;3.87;;
6665;SDS011;3369;49.906;8.598;2023-02-28T11:46:30;8.20;;;4.83;;
6665;SDS011;3369;49.906;8.598;2023-02-28T11:52:06;5.17;;;3.63;;
6665;SDS011;3369;49.906;8.598;2023-02-28T11:57:31;4.43;;;3.67;;
6665;SDS011;3369;49.906;8.598;2023-02-28T12:00:25;4.20;;;3.80;;
6665;SDS011;3369;49.906;8.598;2023-02-28T12:08:46;4.07;;;3.67;;
6665;SDS011;3369;49.906;8.598;2023-02-28T12:22:22;3.97;;;3.57;;
6665;SDS011;3369;49.906;8.598;2023-02-28T12:27:28;5.07;;;3.80;;
6665;SDS011;3369;49.906;8.598;2023-02-28T12:32:42;5.67;;;4.33;;
6665;SDS011;3369;49.906;8.598;2023-02-28T12:35:16;6.37;;;3.97;;
6665;SDS011;3369;49.906;8.598;2023-02-28T12:37:51;4.97;;;3.87;;
6665;SDS011;3369;49.906;8.598;2023-02-28T12:40:32;6.33;;;4.03;;
6665;SDS011;3369;49.906;8.598;2023-02-28T12:43:12;4.27;;;3.87;;
6665;SDS011;3369;49.906;8.598;2023-02-28T12:45:43;4.47;;;4.07;;
6665;SDS011;3369;49.906;8.598;2023-02-28T12:48:20;7.10;;;4.13;;
6665;SDS011;3369;49.906;8.598;2023-02-28T12:50:50;4.13;;;3.73;;
6665;SDS011;3369;49.906;8.598;2023-02-28T12:58:45;5.83;;;4.77;;
6665;SDS011;3369;49.906;8.598;2023-02-28T13:29:35;4.37;;;3.93;;
6665;SDS011;3369;49.906;8.598;2023-02-28T13:34:35;4.83;;;4.30;;
6665;SDS011;3369;49.906;8.598;2023-02-28T13:37:48;4.77;;;4.00;;
6665;SDS011;3369;49.906;8.598;2023-02-28T13:47:42;8.93;;;5.20;;
6665;SDS011;3369;49.906;8.598;2023-02-28T13:52:51;5.93;;;4.40;;
6665;SDS011;3369;49.906;8.598;2023-02-28T13:55:37;4.33;;;3.93;;
6665;SDS011;3369;49.906;8.598;2023-02-28T14:01:11;4.47;;;3.77;;
6665;SDS011;3369;49.906;8.598;2023-02-28T14:06:25;6.17;;;4.80;;
6665;SDS011;3369;49.906;8.598;2023-02-28T14:08:57;5.30;;;4.60;;
6665;SDS011;3369;49.906;8.598;2023-02-28T14:11:27;4.87;;;4.40;;
6665;SDS011;3369;49.906;8.598;2023-02-28T14:13:56;5.60;;;5.00;;
6665;SDS011;3369;49.906;8.598;2023-02-28T14:16:35;5.77;;;4.60;;
6665;SDS011;3369;49.906;8.598;2023-02-28T14:19:24;4.50;;;4.00;;
6665;SDS011;3369;49.906;8.598;2023-02-28T14:24:48;4.93;;;4.43;;
6665;SDS011;3369;49.906;8.598;2023-02-28T14:33:42;5.80;;;4.27;;
6665;SDS011;3369;49.906;8.598;2023-02-28T14:38:30;5.80;;;4.33;;
6665;SDS011;3369;49.906;8.598;2023-02-28T14:41:02;5.13;;;4.20;;
6665;SDS011;3369;49.906;8.598;2023-02-28T14:43:31;5.50;;;4.40;;
6665;SDS011;3369;49.906;8.598;2023-02-28T14:46:01;7.47;;;4.70;;
6665;SDS011;3369;49.906;8.598;2023-02-28T14:48:28;5.30;;;4.80;;
6665;SDS011;3369;49.906;8.598;2023-02-28T14:50:55;5.47;;;4.50;;
6665;SDS011;3369;49.906;8.598;2023-02-28T14:53:24;5.20;;;4.70;;
6665;SDS011;3369;49.906;8.598;2023-02-28T14:55:53;6.57;;;5.10;;
6665;SDS011;3369;49.906;8.598;2023-02-28T14:58:29;5.00;;;4.30;;
6665;SDS011;3369;49.906;8.598;2023-02-28T15:01:01;4.97;;;4.40;;
6665;SDS011;3369;49.906;8.598;2023-02-28T15:09:39;6.87;;;4.83;;
6665;SDS011;3369;49.906;8.598;2023-02-28T15:12:05;5.63;;;4.73;;
6665;SDS011;3369;49.906;8.598;2023-02-28T15:14:31;5.93;;;5.17;;
6665;SDS011;3369;49.906;8.598;2023-02-28T15:17:00;4.97;;;4.53;;
6665;SDS011;3369;49.906;8.598;2023-02-28T15:26:54;7.33;;;4.33;;
6665;SDS011;3369;49.906;8.598;2023-02-28T15:43:30;4.80;;;4.30;;
6665;SDS011;3369;49.906;8.598;2023-02-28T15:45:59;7.47;;;5.30;;
6665;SDS011;3369;49.906;8.598;2023-02-28T15:48:36;4.97;;;4.23;;
6665;SDS011;3369;49.906;8.598;2023-02-28T15:51:17;5.43;;;4.87;;
6665;SDS011;3369;49.906;8.598;2023-02-28T15:54:14;6.53;;;4.73;;
6665;SDS011;3369;49.906;8.598;2023-02-28T15:56:51;5.40;;;4.30;;
6665;SDS011;3369;49.906;8.598;2023-02-28T15:59:25;5.07;;;4.57;;
6665;SDS011;3369;49.906;8.598;2023-02-28T16:10:24;5.23;;;4.40;;
6665;SDS011;3369;49.906;8.598;2023-02-28T16:12:53;4.73;;;4.20;;
6665;SDS011;3369;49.906;8.598;2023-02-28T16:18:08;5.03;;;4.33;;
6665;SDS011;3369;49.906;8.598;2023-02-28T16:20:37;7.20;;;5.10;;
6665;SDS011;3369;49.906;8.598;2023-02-28T16:23:03;5.67;;;5.00;;
6665;SDS011;3369;49.906;8.598;2023-02-28T16:25:33;6.70;;;5.13;;
6665;SDS011;3369;49.906;8.598;2023-02-28T16:28:01;6.57;;;4.83;;
6665;SDS011;3369;49.906;8.598;2023-02-28T16:30:28;7.20;;;5.10;;
6665;SDS011;3369;49.906;8.598;2023-02-28T16:32:58;6.10;;;4.60;;
6665;SDS011;3369;49.906;8.598;2023-02-28T16:35:24;6.37;;;4.17;;
6665;SDS011;3369;49.906;8.598;2023-02-28T16:37:58;5.40;;;4.90;;
6665;SDS011;3369;49.906;8.598;2023-02-28T16:40:27;6.17;;;5.33;;
6665;SDS011;3369;49.906;8.598;2023-02-28T16:42:58;5.73;;;4.67;;
6665;SDS011;3369;49.906;8.598;2023-02-28T16:45:26;6.07;;;4.40;;
6665;SDS011;3369;49.906;8.598;2023-02-28T16:47:56;7.00;;;5.43;;
6665;SDS011;3369;49.906;8.598;2023-02-28T16:50:23;7.70;;;4.87;;
6665;SDS011;3369;49.906;8.598;2023-02-28T16:52:50;5.53;;;4.73;;
6665;SDS011;3369;49.906;8.598;2023-02-28T16:55:19;6.23;;;4.43;;
6665;SDS011;3369;49.906;8.598;2023-02-28T16:57:49;5.27;;;4.50;;
6665;SDS011;3369;49.906;8.598;2023-02-28T17:00:23;5.97;;;4.20;;
6665;SDS011;3369;49.906;8.598;2023-02-28T17:02:50;5.27;;;4.47;;
6665;SDS011;3369;49.906;8.598;2023-02-28T17:05:17;6.23;;;4.77;;
6665;SDS011;3369;49.906;8.598;2023-02-28T17:07:44;6.10;;;4.90;;
6665;SDS011;3369;49.906;8.598;2023-02-28T17:10:17;5.10;;;4.60;;
6665;SDS011;3369;49.906;8.598;2023-02-28T17:12:45;6.73;;;5.17;;
6665;SDS011;3369;49.906;8.598;2023-02-28T17:15:14;5.53;;;4.67;;
6665;SDS011;3369;49.906;8.598;2023-02-28T17:17:47;5.83;;;4.60;;
6665;SDS011;3369;49.906;8.598;2023-02-28T17:22:49;7.03;;;5.27;;
6665;SDS011;3369;49.906;8.598;2023-02-28T17:25:15;6.27;;;5.10;;
6665;SDS011;3369;49.906;8.598;2023-02-28T17:27:42;7.87;;;5.43;;
6665;SDS011;3369;49.906;8.598;2023-02-28T17:30:10;5.93;;;5.07;;
6665;SDS011;3369;49.906;8.598;2023-02-28T17:32:55;7.90;;;5.53;;
6665;SDS011;3369;49.906;8.598;2023-02-28T17:35:21;7.07;;;5.57;;
6665;SDS011;3369;49.906;8.598;2023-02-28T17:37:48;6.23;;;5.20;;
6665;SDS011;3369;49.906;8.598;2023-02-28T17:40:22;6.67;;;5.50;;
6665;SDS011;3369;49.906;8.598;2023-02-28T17:42:51;6.87;;;5.13;;
6665;SDS011;3369;49.906;8.598;2023-02-28T17:45:17;8.27;;;5.53;;
6665;SDS011;3369;49.906;8.598;2023-02-28T17:47:45;8.87;;;5.30;;
6665;SDS011;3369;49.906;8.598;2023-02-28T17:50:14;6.20;;;5.53;;
6665;SDS011;3369;49.906;8.598;2023-02-28T17:52:41;6.10;;;5.50;;
6665;SDS011;3369;49.906;8.598;2023-02-28T17:55:08;7.60;;;5.30;;
6665;SDS011;3369;49.906;8.598;2023-02-28T17:57:34;7.87;;;6.03;;
6665;SDS011;3369;49.906;8.598;2023-02-28T18:00:00;7.67;;;5.53;;
6665;SDS011;3369;49.906;8.598;2023-02-28T18:02:30;10.37;;;5.77;;
6665;SDS011;3369;49.906;8.598;2023-02-28T18:04:56;6.97;;;5.40;;
6665;SDS011;3369;49.906;8.598;2023-02-28T18:07:22;5.63;;;4.87;;
6665;SDS011;3369;49.906;8.598;2023-02-28T18:09:58;7.57;;;5.70;;
6665;SDS011;3369;49.906;8.598;2023-02-28T18:12:24;5.83;;;5.00;;
6665;SDS011;3369;49.906;8.598;2023-02-28T18:14:50;6.77;;;5.60;;
6665;SDS011;3369;49.906;8.598;2023-02-28T18:17:16;7.20;;;5.20;;
6665;SDS011;3369;49.906;8.598;2023-02-28T18:19:42;5.90;;;5.23;;
6665;SDS011;3369;49.906;8.598;2023-02-28T18:22:09;6.73;;;5.53;;
6665;SDS011;3369;49.906;8.598;2023-02-28T18:24:41;8.83;;;5.83;;
6665;SDS011;3369;49.906;8.598;2023-02-28T18:27:09;7.60;;;5.90;;
6665;SDS011;3369;49.906;8.598;2023-02-28T18:29:36;13.00;;;5.87;;
6665;SDS011;3369;49.906;8.598;2023-02-28T18:32:02;6.17;;;5.57;;
6665;SDS011;3369;49.906;8.598;2023-02-28T18:34:30;6.20;;;5.40;;
6665;SDS011;3369;49.906;8.598;2023-02-28T18:36:56;5.97;;;5.13;;
6665;SDS011;3369;49.906;8.598;2023-02-28T18:39:27;7.13;;;5.60;;
6665;SDS011;3369;49.906;8.598;2023-02-28T18:41:54;6.27;;;5.33;;
6665;SDS011;3369;49.906;8.598;2023-02-28T18:47:43;7.50;;;5.20;;
6665;SDS011;3369;49.906;8.598;2023-02-28T18:50:14;5.67;;;4.90;;
6665;SDS011;3369;49.906;8.598;2023-02-28T18:52:41;6.13;;;4.83;;
6665;SDS011;3369;49.906;8.598;2023-02-28T18:55:09;8.23;;;5.50;;
6665;SDS011;3369;49.906;8.598;2023-02-28T18:57:38;6.80;;;5.00;;
6665;SDS011;3369;49.906;8.598;2023-02-28T19:00:04;6.50;;;5.07;;
6665;SDS011;3369;49.906;8.598;2023-02-28T19:02:31;7.33;;;5.77;;
6665;SDS011;3369;49.906;8.598;2023-02-28T19:04:57;5.37;;;4.70;;
6665;SDS011;3369;49.906;8.598;2023-02-28T19:28:51;5.30;;;4.40;;
6665;SDS011;3369;49.906;8.598;2023-02-28T19:31:20;6.33;;;4.20;;
6665;SDS011;3369;49.906;8.598;2023-02-28T19:33:48;6.47;;;4.50;;
6665;SDS011;3369;49.906;8.598;2023-02-28T19:36:16;5.00;;;4.27;;
6665;SDS011;3369;49.906;8.598;2023-02-28T19:38:43;5.30;;;4.33;;
6665;SDS011;3369;49.906;8.598;2023-02-28T19:41:10;4.70;;;4.30;;
6665;SDS011;3369;49.906;8.598;2023-02-28T19:43:37;4.47;;;4.03;;
6665;SDS011;3369;49.906;8.598;2023-02-28T19:48:53;6.43;;;5.00;;
6665;SDS011;3369;49.906;8.598;2023-02-28T19:51:22;6.67;;;5.90;;
6665;SDS011;3369;49.906;8.598;2023-02-28T19:56:40;8.27;;;6.57;;
6665;SDS011;3369;49.906;8.598;2023-02-28T19:59:06;9.10;;;6.63;;
6665;SDS011;3369;49.906;8.598;2023-02-28T20:01:32;6.80;;;6.10;;
6665;SDS011;3369;49.906;8.598;2023-02-28T20:03:58;7.27;;;6.00;;
6665;SDS011;3369;49.906;8.598;2023-02-28T20:06:30;8.60;;;5.67;;
6665;SDS011;3369;49.906;8.598;2023-02-28T20:08:56;6.90;;;5.80;;
6665;SDS011;3369;49.906;8.598;2023-02-28T20:11:23;8.17;;;6.47;;
6665;SDS011;3369;49.906;8.598;2023-02-28T20:13:52;7.97;;;6.23;;
6665;SDS011;3369;49.906;8.598;2023-02-28T20:16:19;8.63;;;6.67;;
6665;SDS011;3369;49.906;8.598;2023-02-28T20:18:48;9.90;;;6.50;;
6665;SDS011;3369;49.906;8.598;2023-02-28T20:21:15;9.23;;;6.73;;
6665;SDS011;3369;49.906;8.598;2023-02-28T20:23:51;8.23;;;6.77;;
6665;SDS011;3369;49.906;8.598;2023-02-28T20:26:18;8.40;;;6.57;;
6665;SDS011;3369;49.906;8.598;2023-02-28T20:28:44;10.00;;;7.03;;
6665;SDS011;3369;49.906;8.598;2023-02-28T20:31:11;7.97;;;6.60;;
6665;SDS011;3369;49.906;8.598;2023-02-28T20:33:46;9.20;;;6.23;;
6665;SDS011;3369;49.906;8.598;2023-02-28T20:36:14;8.50;;;7.13;;
6665;SDS011;3369;49.906;8.598;2023-02-28T20:38:41;7.73;;;6.30;;
6665;SDS011;3369;49.906;8.598;2023-02-28T20:41:37;8.53;;;6.60;;
6665;SDS011;3369;49.906;8.598;2023-02-28T20:44:12;8.47;;;6.40;;
6665;SDS011;3369;49.906;8.598;2023-02-28T20:46:38;10.20;;;7.03;;
6665;SDS011;3369;49.906;8.598;2023-02-28T20:49:08;9.63;;;6.73;;
6665;SDS011;3369;49.906;8.598;2023-02-28T20:59:04;10.03;;;7.30;;
6665;SDS011;3369;49.906;8.598;2023-02-28T21:01:34;10.87;;;8.57;;
6665;SDS011;3369;49.906;8.598;2023-02-28T21:04:01;11.43;;;7.50;;
6665;SDS011;3369;49.906;8.598;2023-02-28T21:06:31;9.80;;;7.47;;
6665;SDS011;3369;49.906;8.598;2023-02-28T21:15:24;9.90;;;6.83;;
6665;SDS011;3369;49.906;8.598;2023-02-28T21:17:50;12.13;;;7.63;;
6665;SDS011;3369;49.906;8.598;2023-02-28T21:20:16;10.47;;;6.93;;
6665;SDS011;3369;49.906;8.598;2023-02-28T21:22:49;8.37;;;6.87;;
6665;SDS011;3369;49.906;8.598;2023-02-28T21:25:16;8.77;;;7.20;;
6665;SDS011;3369;49.906;8.598;2023-02-28T21:27:42;8.80;;;7.20;;
6665;SDS011;3369;49.906;8.598;2023-02-28T21:30:08;9.13;;;6.97;;
6665;SDS011;3369;49.906;8.598;2023-02-28T21:32:34;7.33;;;6.10;;
6665;SDS011;3369;49.906;8.598;2023-02-28T21:35:00;7.97;;;7.00;;
6665;SDS011;3369;49.906;8.598;2023-02-28T21:37:29;9.13;;;7.57;;
6665;SDS011;3369;49.906;8.598;2023-02-28T21:39:55;7.23;;;6.03;;
6665;SDS011;3369;49.906;8.598;2023-02-28T21:42:30;7.20;;;5.93;;
6665;SDS011;3369;49.906;8.598;2023-02-28T21:44:56;8.67;;;6.10;;
6665;SDS011;3369;49.906;8.598;2023-02-28T21:47:31;7.07;;;5.60;;
6665;SDS011;3369;49.906;8.598;2023-02-28T21:50:04;9.60;;;6.17;;
6665;SDS011;3369;49.906;8.598;2023-02-28T21:52:31;7.37;;;5.80;;
6665;SDS011;3369;49.906;8.598;2023-02-28T21:54:57;9.37;;;7.03;;